sensor_id;sensor_type;location;lat;lon;timestamp;P1;durP1;ratioP1;P2;durP2;ratioP2
38901;SDS011;24661;53.566;9.910;2023-07-31T00:02:14;7.50;;;1.87;;
38901;SDS011;24661;53.566;9.910;2023-07-31T00:04:40;8.67;;;2.10;;
38901;SDS011;24661;53.566;9.910;2023-07-31T00:07:05;7.17;;;2.03;;
38901;SDS011;24661;53.566;9.910;2023-07-31T00:09:32;6.90;;;2.03;;
38901;SDS011;24661;53.566;9.910;2023-07-31T00:11:58;7.47;;;2.20;;
38901;SDS011;24661;53.566;9.910;2023-07-31T00:14:24;8.93;;;3.47;;
38901;SDS011;24661;53.566;9.910;2023-07-31T00:16:49;9.23;;;1.60;;
38901;SDS011;24661;53.566;9.910;2023-07-31T00:19:15;3.80;;;1.97;;
38901;SDS011;24661;53.566;9.910;2023-07-31T00:21:40;5.80;;;2.23;;
38901;SDS011;24661;53.566;9.910;2023-07-31T00:24:06;7.77;;;1.93;;
38901;SDS011;24661;53.566;9.910;2023-07-31T00:26:31;3.93;;;1.67;;
38901;SDS011;24661;53.566;9.910;2023-07-31T00:28:57;6.83;;;1.90;;
38901;SDS011;24661;53.566;9.910;2023-07-31T00:31:22;6.37;;;2.07;;
38901;SDS011;24661;53.566;9.910;2023-07-31T00:33:48;8.67;;;2.20;;
38901;SDS011;24661;53.566;9.910;2023-07-31T00:36:14;8.00;;;1.97;;
38901;SDS011;24661;53.566;9.910;2023-07-31T00:38:39;5.93;;;1.83;;
38901;SDS011;24661;53.566;9.910;2023-07-31T00:41:05;7.80;;;2.00;;
38901;SDS011;24661;53.566;9.910;2023-07-31T00:43:30;9.57;;;2.93;;
38901;SDS011;24661;53.566;9.910;2023-07-31T00:45:56;7.60;;;2.47;;
38901;SDS011;24661;53.566;9.910;2023-07-31T00:48:22;9.27;;;1.93;;
38901;SDS011;24661;53.566;9.910;2023-07-31T00:50:48;6.50;;;1.80;;
38901;SDS011;24661;53.566;9.910;2023-07-31T00:53:13;4.87;;;2.33;;
38901;SDS011;24661;53.566;9.910;2023-07-31T00:55:39;7.60;;;2.90;;
38901;SDS011;24661;53.566;9.910;2023-07-31T00:58:05;8.20;;;2.63;;
38901;SDS011;24661;53.566;9.910;2023-07-31T01:00:30;5.97;;;1.77;;
38901;SDS011;24661;53.566;9.910;2023-07-31T01:02:56;6.93;;;2.27;;
38901;SDS011;24661;53.566;9.910;2023-07-31T01:05:25;10.50;;;2.40;;
38901;SDS011;24661;53.566;9.910;2023-07-31T01:10:30;9.33;;;2.23;;
38901;SDS011;24661;53.566;9.910;2023-07-31T01:13:11;6.23;;;1.83;;
38901;SDS011;24661;53.566;9.910;2023-07-31T01:15:37;7.17;;;2.80;;
38901;SDS011;24661;53.566;9.910;2023-07-31T01:18:03;10.73;;;2.27;;
38901;SDS011;24661;53.566;9.910;2023-07-31T01:20:29;9.40;;;2.30;;
38901;SDS011;24661;53.566;9.910;2023-07-31T01:28:44;9.13;;;3.50;;
38901;SDS011;24661;53.566;9.910;2023-07-31T01:31:23;6.37;;;2.33;;
38901;SDS011;24661;53.566;9.910;2023-07-31T01:33:51;7.23;;;2.00;;
38901;SDS011;24661;53.566;9.910;2023-07-31T01:36:19;9.37;;;2.73;;
38901;SDS011;24661;53.566;9.910;2023-07-31T01:38:45;7.17;;;2.00;;
38901;SDS011;24661;53.566;9.910;2023-07-31T01:41:16;6.23;;;2.60;;
38901;SDS011;24661;53.566;9.910;2023-07-31T01:43:42;11.50;;;3.20;;
38901;SDS011;24661;53.566;9.910;2023-07-31T01:46:08;4.47;;;2.10;;
38901;SDS011;24661;53.566;9.910;2023-07-31T01:48:33;8.30;;;2.50;;
38901;SDS011;24661;53.566;9.910;2023-07-31T01:51:01;7.20;;;2.53;;
38901;SDS011;24661;53.566;9.910;2023-07-31T01:53:27;7.80;;;2.60;;
38901;SDS011;24661;53.566;9.910;2023-07-31T01:55:53;8.37;;;2.37;;
38901;SDS011;24661;53.566;9.910;2023-07-31T01:58:19;5.70;;;2.17;;
38901;SDS011;24661;53.566;9.910;2023-07-31T02:00:44;4.97;;;2.40;;
38901;SDS011;24661;53.566;9.910;2023-07-31T02:03:11;9.13;;;2.77;;
38901;SDS011;24661;53.566;9.910;2023-07-31T02:05:37;5.20;;;2.43;;
38901;SDS011;24661;53.566;9.910;2023-07-31T02:08:12;7.70;;;2.37;;
38901;SDS011;24661;53.566;9.910;2023-07-31T02:10:38;8.77;;;2.77;;
38901;SDS011;24661;53.566;9.910;2023-07-31T02:13:04;7.47;;;2.70;;
38901;SDS011;24661;53.566;9.910;2023-07-31T02:15:30;7.70;;;2.47;;
38901;SDS011;24661;53.566;9.910;2023-07-31T02:17:55;6.77;;;1.97;;
38901;SDS011;24661;53.566;9.910;2023-07-31T02:20:21;8.73;;;2.87;;
38901;SDS011;24661;53.566;9.910;2023-07-31T02:22:47;5.30;;;2.43;;
38901;SDS011;24661;53.566;9.910;2023-07-31T02:25:13;9.73;;;3.10;;
38901;SDS011;24661;53.566;9.910;2023-07-31T02:27:38;5.47;;;2.50;;
38901;SDS011;24661;53.566;9.910;2023-07-31T02:30:04;5.17;;;2.00;;
38901;SDS011;24661;53.566;9.910;2023-07-31T02:32:30;7.17;;;2.67;;
38901;SDS011;24661;53.566;9.910;2023-07-31T02:34:56;5.97;;;2.33;;
38901;SDS011;24661;53.566;9.910;2023-07-31T02:37:21;8.07;;;2.73;;
38901;SDS011;24661;53.566;9.910;2023-07-31T02:39:47;7.77;;;3.00;;
38901;SDS011;24661;53.566;9.910;2023-07-31T02:42:12;13.17;;;2.50;;
38901;SDS011;24661;53.566;9.910;2023-07-31T02:44:38;5.87;;;2.10;;
38901;SDS011;24661;53.566;9.910;2023-07-31T02:47:04;6.57;;;2.17;;
38901;SDS011;24661;53.566;9.910;2023-07-31T02:49:30;4.83;;;2.13;;
38901;SDS011;24661;53.566;9.910;2023-07-31T02:51:55;4.13;;;2.37;;
38901;SDS011;24661;53.566;9.910;2023-07-31T02:54:21;6.53;;;2.10;;
38901;SDS011;24661;53.566;9.910;2023-07-31T02:56:47;4.50;;;2.20;;
38901;SDS011;24661;53.566;9.910;2023-07-31T02:59:12;4.47;;;2.17;;
38901;SDS011;24661;53.566;9.910;2023-07-31T03:01:38;6.67;;;2.37;;
38901;SDS011;24661;53.566;9.910;2023-07-31T03:04:04;8.70;;;2.80;;
38901;SDS011;24661;53.566;9.910;2023-07-31T03:06:30;11.07;;;3.90;;
38901;SDS011;24661;53.566;9.910;2023-07-31T03:08:55;4.83;;;2.70;;
38901;SDS011;24661;53.566;9.910;2023-07-31T03:11:21;7.83;;;2.83;;
38901;SDS011;24661;53.566;9.910;2023-07-31T03:13:46;8.83;;;2.70;;
38901;SDS011;24661;53.566;9.910;2023-07-31T03:16:12;8.17;;;2.83;;
38901;SDS011;24661;53.566;9.910;2023-07-31T03:18:38;9.87;;;3.77;;
38901;SDS011;24661;53.566;9.910;2023-07-31T03:21:04;12.10;;;2.43;;
38901;SDS011;24661;53.566;9.910;2023-07-31T03:23:29;7.70;;;2.30;;
38901;SDS011;24661;53.566;9.910;2023-07-31T03:25:56;5.60;;;2.20;;
38901;SDS011;24661;53.566;9.910;2023-07-31T03:28:25;11.50;;;3.03;;
38901;SDS011;24661;53.566;9.910;2023-07-31T03:30:51;8.20;;;2.77;;
38901;SDS011;24661;53.566;9.910;2023-07-31T03:33:17;8.63;;;2.53;;
38901;SDS011;24661;53.566;9.910;2023-07-31T03:35:42;8.63;;;2.50;;
38901;SDS011;24661;53.566;9.910;2023-07-31T03:38:08;5.83;;;2.80;;
38901;SDS011;24661;53.566;9.910;2023-07-31T03:40:33;4.37;;;2.20;;
38901;SDS011;24661;53.566;9.910;2023-07-31T03:42:59;7.67;;;2.60;;
38901;SDS011;24661;53.566;9.910;2023-07-31T03:45:25;6.43;;;2.50;;
38901;SDS011;24661;53.566;9.910;2023-07-31T03:47:50;4.77;;;2.30;;
38901;SDS011;24661;53.566;9.910;2023-07-31T03:50:16;5.57;;;2.73;;
38901;SDS011;24661;53.566;9.910;2023-07-31T03:52:41;3.80;;;2.07;;
38901;SDS011;24661;53.566;9.910;2023-07-31T03:55:07;3.83;;;2.17;;
38901;SDS011;24661;53.566;9.910;2023-07-31T03:57:32;6.00;;;2.50;;
38901;SDS011;24661;53.566;9.910;2023-07-31T03:59:58;4.70;;;2.40;;
38901;SDS011;24661;53.566;9.910;2023-07-31T04:02:24;4.83;;;2.60;;
38901;SDS011;24661;53.566;9.910;2023-07-31T04:04:49;7.20;;;2.70;;
38901;SDS011;24661;53.566;9.910;2023-07-31T04:07:15;5.20;;;2.23;;
38901;SDS011;24661;53.566;9.910;2023-07-31T04:09:41;4.53;;;2.20;;
38901;SDS011;24661;53.566;9.910;2023-07-31T04:12:06;7.60;;;2.97;;
38901;SDS011;24661;53.566;9.910;2023-07-31T04:14:32;5.00;;;2.73;;
38901;SDS011;24661;53.566;9.910;2023-07-31T04:16:57;2.53;;;1.80;;
38901;SDS011;24661;53.566;9.910;2023-07-31T04:19:23;3.20;;;2.40;;
38901;SDS011;24661;53.566;9.910;2023-07-31T04:21:49;3.00;;;1.90;;
38901;SDS011;24661;53.566;9.910;2023-07-31T04:24:15;3.73;;;2.20;;
38901;SDS011;24661;53.566;9.910;2023-07-31T04:26:40;5.07;;;2.50;;
38901;SDS011;24661;53.566;9.910;2023-07-31T04:29:06;4.33;;;2.33;;
38901;SDS011;24661;53.566;9.910;2023-07-31T04:31:32;5.40;;;2.73;;
38901;SDS011;24661;53.566;9.910;2023-07-31T04:33:58;3.27;;;1.57;;
38901;SDS011;24661;53.566;9.910;2023-07-31T04:36:24;4.13;;;2.17;;
38901;SDS011;24661;53.566;9.910;2023-07-31T04:38:49;4.03;;;2.77;;
38901;SDS011;24661;53.566;9.910;2023-07-31T04:41:15;3.20;;;2.00;;
38901;SDS011;24661;53.566;9.910;2023-07-31T04:43:40;4.77;;;2.03;;
38901;SDS011;24661;53.566;9.910;2023-07-31T04:46:06;3.43;;;2.00;;
38901;SDS011;24661;53.566;9.910;2023-07-31T04:48:31;4.07;;;2.03;;
38901;SDS011;24661;53.566;9.910;2023-07-31T04:50:57;5.30;;;2.20;;
38901;SDS011;24661;53.566;9.910;2023-07-31T04:53:22;5.67;;;1.90;;
38901;SDS011;24661;53.566;9.910;2023-07-31T04:55:48;6.50;;;2.23;;
38901;SDS011;24661;53.566;9.910;2023-07-31T04:58:14;4.50;;;2.23;;
38901;SDS011;24661;53.566;9.910;2023-07-31T05:00:39;4.43;;;2.30;;
38901;SDS011;24661;53.566;9.910;2023-07-31T05:03:05;2.90;;;2.07;;
38901;SDS011;24661;53.566;9.910;2023-07-31T05:05:31;4.20;;;2.20;;
38901;SDS011;24661;53.566;9.910;2023-07-31T05:07:56;4.33;;;2.10;;
38901;SDS011;24661;53.566;9.910;2023-07-31T05:10:22;4.50;;;2.10;;
38901;SDS011;24661;53.566;9.910;2023-07-31T05:12:48;4.13;;;2.10;;
38901;SDS011;24661;53.566;9.910;2023-07-31T05:15:14;5.20;;;2.17;;
38901;SDS011;24661;53.566;9.910;2023-07-31T05:17:39;4.80;;;1.90;;
38901;SDS011;24661;53.566;9.910;2023-07-31T05:20:05;3.40;;;2.13;;
38901;SDS011;24661;53.566;9.910;2023-07-31T05:22:31;3.17;;;2.30;;
38901;SDS011;24661;53.566;9.910;2023-07-31T05:24:57;2.20;;;1.93;;
38901;SDS011;24661;53.566;9.910;2023-07-31T05:27:22;3.40;;;2.30;;
38901;SDS011;24661;53.566;9.910;2023-07-31T05:29:48;3.37;;;2.40;;
38901;SDS011;24661;53.566;9.910;2023-07-31T05:32:13;3.53;;;2.43;;
38901;SDS011;24661;53.566;9.910;2023-07-31T05:34:39;2.50;;;1.97;;
38901;SDS011;24661;53.566;9.910;2023-07-31T05:37:04;6.70;;;2.40;;
38901;SDS011;24661;53.566;9.910;2023-07-31T05:39:31;5.80;;;2.10;;
38901;SDS011;24661;53.566;9.910;2023-07-31T05:41:56;2.97;;;2.00;;
38901;SDS011;24661;53.566;9.910;2023-07-31T05:44:22;3.17;;;1.80;;
38901;SDS011;24661;53.566;9.910;2023-07-31T05:46:47;2.97;;;2.40;;
38901;SDS011;24661;53.566;9.910;2023-07-31T05:49:13;4.37;;;2.20;;
38901;SDS011;24661;53.566;9.910;2023-07-31T05:51:38;2.77;;;2.53;;
38901;SDS011;24661;53.566;9.910;2023-07-31T05:54:04;3.23;;;2.10;;
38901;SDS011;24661;53.566;9.910;2023-07-31T05:56:29;3.03;;;2.50;;
38901;SDS011;24661;53.566;9.910;2023-07-31T05:58:56;3.37;;;2.30;;
38901;SDS011;24661;53.566;9.910;2023-07-31T06:01:22;4.80;;;3.00;;
38901;SDS011;24661;53.566;9.910;2023-07-31T06:03:47;5.03;;;2.80;;
38901;SDS011;24661;53.566;9.910;2023-07-31T06:06:13;4.07;;;2.47;;
38901;SDS011;24661;53.566;9.910;2023-07-31T06:08:39;5.83;;;2.90;;
38901;SDS011;24661;53.566;9.910;2023-07-31T06:11:05;5.97;;;2.70;;
38901;SDS011;24661;53.566;9.910;2023-07-31T06:13:31;3.27;;;2.43;;
38901;SDS011;24661;53.566;9.910;2023-07-31T06:15:56;4.17;;;2.60;;
38901;SDS011;24661;53.566;9.910;2023-07-31T06:18:22;3.60;;;2.57;;
38901;SDS011;24661;53.566;9.910;2023-07-31T06:20:47;3.17;;;2.67;;
38901;SDS011;24661;53.566;9.910;2023-07-31T06:23:18;2.70;;;2.50;;
38901;SDS011;24661;53.566;9.910;2023-07-31T06:25:44;2.57;;;2.37;;
38901;SDS011;24661;53.566;9.910;2023-07-31T06:28:10;3.40;;;2.60;;
38901;SDS011;24661;53.566;9.910;2023-07-31T06:30:35;2.60;;;2.40;;
38901;SDS011;24661;53.566;9.910;2023-07-31T06:33:01;2.77;;;2.57;;
38901;SDS011;24661;53.566;9.910;2023-07-31T06:35:26;2.33;;;2.23;;
38901;SDS011;24661;53.566;9.910;2023-07-31T06:37:52;2.70;;;2.40;;
38901;SDS011;24661;53.566;9.910;2023-07-31T06:40:18;3.20;;;2.77;;
38901;SDS011;24661;53.566;9.910;2023-07-31T06:42:44;2.20;;;2.00;;
38901;SDS011;24661;53.566;9.910;2023-07-31T06:45:10;3.70;;;2.77;;
38901;SDS011;24661;53.566;9.910;2023-07-31T06:47:36;2.60;;;2.40;;
38901;SDS011;24661;53.566;9.910;2023-07-31T06:50:02;4.97;;;2.87;;
38901;SDS011;24661;53.566;9.910;2023-07-31T06:52:27;2.60;;;2.30;;
38901;SDS011;24661;53.566;9.910;2023-07-31T06:55:04;3.97;;;3.00;;
38901;SDS011;24661;53.566;9.910;2023-07-31T06:57:43;3.13;;;2.77;;
38901;SDS011;24661;53.566;9.910;2023-07-31T07:00:09;3.20;;;2.50;;
38901;SDS011;24661;53.566;9.910;2023-07-31T07:02:35;3.53;;;2.50;;
38901;SDS011;24661;53.566;9.910;2023-07-31T07:05:00;5.03;;;2.77;;
38901;SDS011;24661;53.566;9.910;2023-07-31T07:07:26;4.57;;;2.80;;
38901;SDS011;24661;53.566;9.910;2023-07-31T07:09:52;3.37;;;3.03;;
38901;SDS011;24661;53.566;9.910;2023-07-31T07:12:17;4.30;;;3.10;;
38901;SDS011;24661;53.566;9.910;2023-07-31T07:14:43;3.07;;;2.60;;
38901;SDS011;24661;53.566;9.910;2023-07-31T07:17:10;3.50;;;2.80;;
38901;SDS011;24661;53.566;9.910;2023-07-31T07:19:36;2.40;;;2.17;;
38901;SDS011;24661;53.566;9.910;2023-07-31T07:22:05;2.20;;;2.00;;
38901;SDS011;24661;53.566;9.910;2023-07-31T07:24:30;2.30;;;2.10;;
38901;SDS011;24661;53.566;9.910;2023-07-31T07:26:56;3.80;;;2.23;;
38901;SDS011;24661;53.566;9.910;2023-07-31T07:29:23;2.53;;;2.33;;
38901;SDS011;24661;53.566;9.910;2023-07-31T07:31:49;2.57;;;2.37;;
38901;SDS011;24661;53.566;9.910;2023-07-31T07:34:15;4.23;;;2.37;;
38901;SDS011;24661;53.566;9.910;2023-07-31T07:36:40;2.73;;;2.30;;
38901;SDS011;24661;53.566;9.910;2023-07-31T07:39:06;2.87;;;2.47;;
38901;SDS011;24661;53.566;9.910;2023-07-31T07:41:31;2.80;;;2.37;;
38901;SDS011;24661;53.566;9.910;2023-07-31T07:43:57;2.20;;;2.00;;
38901;SDS011;24661;53.566;9.910;2023-07-31T07:46:22;3.33;;;2.33;;
38901;SDS011;24661;53.566;9.910;2023-07-31T07:48:48;2.83;;;2.57;;
38901;SDS011;24661;53.566;9.910;2023-07-31T07:51:13;4.00;;;3.27;;
38901;SDS011;24661;53.566;9.910;2023-07-31T07:53:39;4.43;;;3.60;;
38901;SDS011;24661;53.566;9.910;2023-07-31T07:56:05;3.40;;;2.20;;
38901;SDS011;24661;53.566;9.910;2023-07-31T07:58:30;3.13;;;2.60;;
38901;SDS011;24661;53.566;9.910;2023-07-31T08:00:56;3.00;;;2.70;;
38901;SDS011;24661;53.566;9.910;2023-07-31T08:03:21;3.60;;;2.27;;
38901;SDS011;24661;53.566;9.910;2023-07-31T08:05:47;3.60;;;2.20;;
38901;SDS011;24661;53.566;9.910;2023-07-31T08:08:16;6.33;;;2.80;;
38901;SDS011;24661;53.566;9.910;2023-07-31T08:10:42;2.80;;;2.30;;
38901;SDS011;24661;53.566;9.910;2023-07-31T08:13:09;2.60;;;2.30;;
38901;SDS011;24661;53.566;9.910;2023-07-31T08:15:36;2.30;;;2.10;;
38901;SDS011;24661;53.566;9.910;2023-07-31T08:18:01;2.37;;;2.00;;
38901;SDS011;24661;53.566;9.910;2023-07-31T08:20:27;2.53;;;2.17;;
38901;SDS011;24661;53.566;9.910;2023-07-31T08:22:52;1.90;;;1.80;;
38901;SDS011;24661;53.566;9.910;2023-07-31T08:25:18;2.03;;;1.90;;
38901;SDS011;24661;53.566;9.910;2023-07-31T08:27:44;5.27;;;3.10;;
38901;SDS011;24661;53.566;9.910;2023-07-31T08:30:11;1.60;;;1.50;;
38901;SDS011;24661;53.566;9.910;2023-07-31T08:32:37;1.53;;;1.43;;
38901;SDS011;24661;53.566;9.910;2023-07-31T08:35:02;1.63;;;1.50;;
38901;SDS011;24661;53.566;9.910;2023-07-31T08:37:28;2.97;;;1.60;;
38901;SDS011;24661;53.566;9.910;2023-07-31T08:39:54;1.37;;;1.23;;
38901;SDS011;24661;53.566;9.910;2023-07-31T08:42:20;1.53;;;1.37;;
38901;SDS011;24661;53.566;9.910;2023-07-31T08:44:46;2.20;;;1.07;;
38901;SDS011;24661;53.566;9.910;2023-07-31T08:47:12;1.47;;;1.20;;
38901;SDS011;24661;53.566;9.910;2023-07-31T08:49:38;2.43;;;1.60;;
38901;SDS011;24661;53.566;9.910;2023-07-31T08:52:06;1.30;;;1.10;;
38901;SDS011;24661;53.566;9.910;2023-07-31T08:54:31;1.97;;;1.13;;
38901;SDS011;24661;53.566;9.910;2023-07-31T08:56:58;1.53;;;1.20;;
38901;SDS011;24661;53.566;9.910;2023-07-31T08:59:25;2.63;;;1.33;;
38901;SDS011;24661;53.566;9.910;2023-07-31T09:01:56;1.00;;;1.00;;
38901;SDS011;24661;53.566;9.910;2023-07-31T09:04:28;1.37;;;1.27;;
38901;SDS011;24661;53.566;9.910;2023-07-31T09:06:57;1.57;;;1.20;;
38901;SDS011;24661;53.566;9.910;2023-07-31T09:09:26;1.40;;;1.30;;
38901;SDS011;24661;53.566;9.910;2023-07-31T09:11:52;2.03;;;1.50;;
38901;SDS011;24661;53.566;9.910;2023-07-31T09:14:18;2.80;;;1.40;;
38901;SDS011;24661;53.566;9.910;2023-07-31T09:16:54;1.60;;;1.40;;
38901;SDS011;24661;53.566;9.910;2023-07-31T09:19:29;2.53;;;1.40;;
38901;SDS011;24661;53.566;9.910;2023-07-31T09:21:59;7.00;;;1.57;;
38901;SDS011;24661;53.566;9.910;2023-07-31T09:24:28;1.90;;;1.70;;
38901;SDS011;24661;53.566;9.910;2023-07-31T09:26:56;14.40;;;1.90;;
38901;SDS011;24661;53.566;9.910;2023-07-31T09:29:24;1.57;;;1.47;;
38901;SDS011;24661;53.566;9.910;2023-07-31T09:31:51;2.53;;;1.70;;
38901;SDS011;24661;53.566;9.910;2023-07-31T09:34:17;1.97;;;1.20;;
38901;SDS011;24661;53.566;9.910;2023-07-31T09:36:44;2.00;;;1.30;;
38901;SDS011;24661;53.566;9.910;2023-07-31T09:39:18;0.90;;;0.90;;
38901;SDS011;24661;53.566;9.910;2023-07-31T09:41:47;1.60;;;1.10;;
38901;SDS011;24661;53.566;9.910;2023-07-31T09:44:18;1.23;;;0.80;;
38901;SDS011;24661;53.566;9.910;2023-07-31T09:46:44;1.50;;;1.23;;
38901;SDS011;24661;53.566;9.910;2023-07-31T09:49:11;2.63;;;1.60;;
38901;SDS011;24661;53.566;9.910;2023-07-31T09:51:37;2.63;;;0.70;;
38901;SDS011;24661;53.566;9.910;2023-07-31T09:54:08;1.10;;;0.90;;
38901;SDS011;24661;53.566;9.910;2023-07-31T09:56:39;1.13;;;0.87;;
38901;SDS011;24661;53.566;9.910;2023-07-31T09:59:10;0.60;;;0.60;;
38901;SDS011;24661;53.566;9.910;2023-07-31T10:01:44;1.10;;;1.00;;
38901;SDS011;24661;53.566;9.910;2023-07-31T10:04:11;1.43;;;1.33;;
38901;SDS011;24661;53.566;9.910;2023-07-31T10:06:38;4.23;;;1.20;;
38901;SDS011;24661;53.566;9.910;2023-07-31T10:09:05;1.10;;;1.00;;
38901;SDS011;24661;53.566;9.910;2023-07-31T10:11:38;1.27;;;1.17;;
38901;SDS011;24661;53.566;9.910;2023-07-31T10:14:07;1.73;;;1.23;;
38901;SDS011;24661;53.566;9.910;2023-07-31T10:16:33;1.50;;;1.20;;
38901;SDS011;24661;53.566;9.910;2023-07-31T10:19:02;2.40;;;1.00;;
38901;SDS011;24661;53.566;9.910;2023-07-31T10:21:29;1.23;;;0.90;;
38901;SDS011;24661;53.566;9.910;2023-07-31T10:23:59;1.00;;;0.90;;
38901;SDS011;24661;53.566;9.910;2023-07-31T10:26:28;0.67;;;0.67;;
38901;SDS011;24661;53.566;9.910;2023-07-31T10:28:55;1.60;;;0.80;;
38901;SDS011;24661;53.566;9.910;2023-07-31T10:31:22;2.37;;;0.90;;
38901;SDS011;24661;53.566;9.910;2023-07-31T10:33:48;1.97;;;0.80;;
38901;SDS011;24661;53.566;9.910;2023-07-31T10:36:17;1.33;;;0.83;;
38901;SDS011;24661;53.566;9.910;2023-07-31T10:38:43;0.77;;;0.73;;
38901;SDS011;24661;53.566;9.910;2023-07-31T10:41:10;1.50;;;0.97;;
38901;SDS011;24661;53.566;9.910;2023-07-31T10:43:38;2.83;;;0.90;;
38901;SDS011;24661;53.566;9.910;2023-07-31T10:46:07;1.17;;;0.60;;
38901;SDS011;24661;53.566;9.910;2023-07-31T10:48:34;1.20;;;0.70;;
38901;SDS011;24661;53.566;9.910;2023-07-31T10:51:01;0.83;;;0.83;;
38901;SDS011;24661;53.566;9.910;2023-07-31T10:53:38;1.10;;;0.83;;
38901;SDS011;24661;53.566;9.910;2023-07-31T10:56:06;1.53;;;0.93;;
38901;SDS011;24661;53.566;9.910;2023-07-31T10:58:39;0.80;;;0.80;;
38901;SDS011;24661;53.566;9.910;2023-07-31T11:01:05;1.47;;;0.93;;
38901;SDS011;24661;53.566;9.910;2023-07-31T11:03:41;1.63;;;0.73;;
38901;SDS011;24661;53.566;9.910;2023-07-31T11:06:08;3.20;;;1.03;;
38901;SDS011;24661;53.566;9.910;2023-07-31T11:08:35;3.23;;;1.00;;
38901;SDS011;24661;53.566;9.910;2023-07-31T11:11:06;1.43;;;1.00;;
38901;SDS011;24661;53.566;9.910;2023-07-31T11:13:39;1.50;;;1.10;;
38901;SDS011;24661;53.566;9.910;2023-07-31T11:16:08;4.80;;;1.33;;
38901;SDS011;24661;53.566;9.910;2023-07-31T11:18:34;1.23;;;1.13;;
38901;SDS011;24661;53.566;9.910;2023-07-31T11:21:00;2.10;;;1.10;;
38901;SDS011;24661;53.566;9.910;2023-07-31T11:23:26;1.60;;;1.10;;
38901;SDS011;24661;53.566;9.910;2023-07-31T11:25:51;1.97;;;1.40;;
38901;SDS011;24661;53.566;9.910;2023-07-31T11:28:17;1.07;;;0.80;;
38901;SDS011;24661;53.566;9.910;2023-07-31T11:30:44;0.90;;;0.77;;
38901;SDS011;24661;53.566;9.910;2023-07-31T11:33:11;1.70;;;1.20;;
38901;SDS011;24661;53.566;9.910;2023-07-31T11:35:43;1.80;;;1.13;;
38901;SDS011;24661;53.566;9.910;2023-07-31T11:38:29;1.20;;;0.70;;
38901;SDS011;24661;53.566;9.910;2023-07-31T11:40:58;1.20;;;1.10;;
38901;SDS011;24661;53.566;9.910;2023-07-31T11:43:25;2.60;;;1.13;;
38901;SDS011;24661;53.566;9.910;2023-07-31T11:45:52;2.13;;;0.50;;
38901;SDS011;24661;53.566;9.910;2023-07-31T11:50:53;0.50;;;0.50;;
38901;SDS011;24661;53.566;9.910;2023-07-31T11:53:26;0.50;;;0.50;;
38901;SDS011;24661;53.566;9.910;2023-07-31T11:55:59;3.20;;;1.53;;
38901;SDS011;24661;53.566;9.910;2023-07-31T11:58:25;1.17;;;0.70;;
38901;SDS011;24661;53.566;9.910;2023-07-31T12:00:52;0.57;;;0.50;;
38901;SDS011;24661;53.566;9.910;2023-07-31T12:03:18;0.43;;;0.43;;
38901;SDS011;24661;53.566;9.910;2023-07-31T12:05:47;1.80;;;0.70;;
38901;SDS011;24661;53.566;9.910;2023-07-31T12:08:13;1.50;;;0.60;;
38901;SDS011;24661;53.566;9.910;2023-07-31T12:10:39;0.90;;;0.50;;
38901;SDS011;24661;53.566;9.910;2023-07-31T12:13:07;0.77;;;0.60;;
38901;SDS011;24661;53.566;9.910;2023-07-31T12:15:41;1.40;;;0.50;;
38901;SDS011;24661;53.566;9.910;2023-07-31T12:18:10;5.73;;;0.87;;
38901;SDS011;24661;53.566;9.910;2023-07-31T12:21:02;4.40;;;1.83;;
38901;SDS011;24661;53.566;9.910;2023-07-31T12:23:28;1.53;;;1.10;;
38901;SDS011;24661;53.566;9.910;2023-07-31T12:26:09;3.13;;;1.90;;
38901;SDS011;24661;53.566;9.910;2023-07-31T12:28:37;11.47;;;1.20;;
38901;SDS011;24661;53.566;9.910;2023-07-31T12:31:18;0.63;;;0.47;;
38901;SDS011;24661;53.566;9.910;2023-07-31T12:33:49;0.60;;;0.43;;
38901;SDS011;24661;53.566;9.910;2023-07-31T12:36:25;0.50;;;0.40;;
38901;SDS011;24661;53.566;9.910;2023-07-31T12:38:51;2.47;;;0.73;;
38901;SDS011;24661;53.566;9.910;2023-07-31T12:41:17;3.63;;;2.37;;
38901;SDS011;24661;53.566;9.910;2023-07-31T12:43:43;3.87;;;2.67;;
38901;SDS011;24661;53.566;9.910;2023-07-31T12:46:10;1.30;;;1.00;;
38901;SDS011;24661;53.566;9.910;2023-07-31T12:48:36;1.67;;;1.00;;
38901;SDS011;24661;53.566;9.910;2023-07-31T12:51:03;2.43;;;0.90;;
38901;SDS011;24661;53.566;9.910;2023-07-31T12:53:29;2.33;;;0.80;;
38901;SDS011;24661;53.566;9.910;2023-07-31T12:55:55;0.50;;;0.50;;
38901;SDS011;24661;53.566;9.910;2023-07-31T12:58:21;1.67;;;0.90;;
38901;SDS011;24661;53.566;9.910;2023-07-31T13:00:47;1.03;;;0.67;;
38901;SDS011;24661;53.566;9.910;2023-07-31T13:03:12;1.17;;;0.80;;
38901;SDS011;24661;53.566;9.910;2023-07-31T13:05:38;1.80;;;0.80;;
38901;SDS011;24661;53.566;9.910;2023-07-31T13:08:03;2.53;;;1.27;;
38901;SDS011;24661;53.566;9.910;2023-07-31T13:10:29;1.13;;;1.00;;
38901;SDS011;24661;53.566;9.910;2023-07-31T13:12:55;1.53;;;0.87;;
38901;SDS011;24661;53.566;9.910;2023-07-31T13:15:21;1.97;;;1.33;;
38901;SDS011;24661;53.566;9.910;2023-07-31T13:17:47;4.20;;;1.43;;
38901;SDS011;24661;53.566;9.910;2023-07-31T13:20:13;3.33;;;1.80;;
38901;SDS011;24661;53.566;9.910;2023-07-31T13:22:38;2.70;;;2.20;;
38901;SDS011;24661;53.566;9.910;2023-07-31T13:25:04;2.10;;;1.33;;
38901;SDS011;24661;53.566;9.910;2023-07-31T13:27:31;1.57;;;1.10;;
38901;SDS011;24661;53.566;9.910;2023-07-31T13:29:56;1.67;;;1.40;;
38901;SDS011;24661;53.566;9.910;2023-07-31T13:32:22;2.80;;;1.70;;
38901;SDS011;24661;53.566;9.910;2023-07-31T13:34:48;4.03;;;2.10;;
38901;SDS011;24661;53.566;9.910;2023-07-31T13:37:14;2.63;;;2.10;;
38901;SDS011;24661;53.566;9.910;2023-07-31T13:39:40;2.67;;;2.10;;
38901;SDS011;24661;53.566;9.910;2023-07-31T13:42:06;2.60;;;2.10;;
38901;SDS011;24661;53.566;9.910;2023-07-31T13:44:36;4.43;;;2.27;;
38901;SDS011;24661;53.566;9.910;2023-07-31T13:47:06;2.37;;;2.17;;
38901;SDS011;24661;53.566;9.910;2023-07-31T13:49:32;5.03;;;2.70;;
38901;SDS011;24661;53.566;9.910;2023-07-31T13:51:58;4.30;;;2.60;;
38901;SDS011;24661;53.566;9.910;2023-07-31T13:54:24;4.53;;;3.37;;
38901;SDS011;24661;53.566;9.910;2023-07-31T13:56:50;7.73;;;3.53;;
38901;SDS011;24661;53.566;9.910;2023-07-31T13:59:17;4.33;;;3.23;;
38901;SDS011;24661;53.566;9.910;2023-07-31T14:01:43;7.70;;;3.00;;
38901;SDS011;24661;53.566;9.910;2023-07-31T14:04:09;5.10;;;3.23;;
38901;SDS011;24661;53.566;9.910;2023-07-31T14:06:34;4.03;;;2.53;;
38901;SDS011;24661;53.566;9.910;2023-07-31T14:09:00;3.93;;;2.30;;
38901;SDS011;24661;53.566;9.910;2023-07-31T14:11:26;3.70;;;2.47;;
38901;SDS011;24661;53.566;9.910;2023-07-31T14:13:51;7.63;;;2.47;;
38901;SDS011;24661;53.566;9.910;2023-07-31T14:16:17;4.17;;;2.53;;
38901;SDS011;24661;53.566;9.910;2023-07-31T14:18:43;10.73;;;3.17;;
38901;SDS011;24661;53.566;9.910;2023-07-31T14:21:10;22.60;;;3.77;;
38901;SDS011;24661;53.566;9.910;2023-07-31T14:23:36;5.00;;;3.03;;
38901;SDS011;24661;53.566;9.910;2023-07-31T14:26:02;35.27;;;4.57;;
38901;SDS011;24661;53.566;9.910;2023-07-31T14:28:28;5.40;;;3.10;;
38901;SDS011;24661;53.566;9.910;2023-07-31T14:30:53;27.20;;;3.50;;
38901;SDS011;24661;53.566;9.910;2023-07-31T14:33:19;13.57;;;2.40;;
38901;SDS011;24661;53.566;9.910;2023-07-31T14:35:45;46.37;;;4.13;;
38901;SDS011;24661;53.566;9.910;2023-07-31T14:38:10;46.90;;;4.47;;
38901;SDS011;24661;53.566;9.910;2023-07-31T14:40:39;43.30;;;4.33;;
38901;SDS011;24661;53.566;9.910;2023-07-31T14:43:05;25.67;;;3.47;;
38901;SDS011;24661;53.566;9.910;2023-07-31T14:45:30;49.33;;;4.60;;
38901;SDS011;24661;53.566;9.910;2023-07-31T14:47:56;34.60;;;3.03;;
38901;SDS011;24661;53.566;9.910;2023-07-31T14:50:21;43.80;;;3.07;;
38901;SDS011;24661;53.566;9.910;2023-07-31T14:52:48;36.00;;;2.87;;
38901;SDS011;24661;53.566;9.910;2023-07-31T14:55:14;34.13;;;2.77;;
38901;SDS011;24661;53.566;9.910;2023-07-31T14:57:39;51.67;;;3.97;;